createdAt,value
2022-11-12T00:00:35.532Z,8.31
2022-11-12T00:05:56.647Z,8.42
2022-11-12T00:11:17.739Z,8.38
2022-11-12T00:16:38.924Z,8.06
2022-11-12T00:21:59.925Z,7.84
2022-11-12T00:27:21.111Z,7.77
2022-11-12T00:32:42.019Z,7.70
2022-11-12T00:38:03.086Z,7.88
2022-11-12T00:43:25.442Z,7.75
2022-11-12T00:48:46.196Z,7.98
2022-11-12T00:54:07.658Z,7.84
2022-11-12T00:59:28.735Z,7.76
2022-11-12T01:04:49.972Z,7.64
2022-11-12T01:10:11.889Z,7.74
2022-11-12T01:15:32.871Z,8.00
2022-11-12T01:20:55.521Z,8.25
2022-11-12T01:26:20.777Z,8.10
2022-11-12T01:31:42.031Z,7.90
2022-11-12T01:37:03.062Z,7.38
2022-11-12T01:42:29.534Z,7.17
2022-11-12T01:47:52.210Z,7.12
2022-11-12T01:53:14.256Z,7.40
2022-11-12T01:58:37.516Z,7.53
2022-11-12T02:03:58.730Z,7.70
2022-11-12T02:09:20.041Z,7.48
2022-11-12T02:14:40.965Z,7.09
2022-11-12T02:20:02.295Z,7.08
2022-11-12T02:25:25.004Z,7.37
2022-11-12T02:30:48.834Z,7.61
2022-11-12T02:36:10.053Z,7.34
2022-11-12T02:41:31.246Z,6.89
2022-11-12T02:46:52.223Z,6.71
2022-11-12T02:52:13.382Z,6.75
2022-11-12T02:57:35.350Z,6.97
2022-11-12T03:02:59.401Z,7.18
2022-11-12T03:08:20.238Z,7.08
2022-11-12T03:13:41.605Z,6.81
2022-11-12T03:19:02.882Z,6.92
2022-11-12T03:24:24.009Z,6.56
2022-11-12T03:29:45.062Z,6.58
2022-11-12T03:35:06.503Z,6.44
2022-11-12T03:40:28.358Z,6.47
2022-11-12T03:45:49.276Z,6.59
2022-11-12T03:51:12.286Z,6.32
2022-11-12T03:56:32.992Z,6.47
2022-11-12T04:01:54.219Z,6.19
2022-11-12T04:07:33.831Z,6.19
2022-11-12T04:13:13.059Z,6.52
2022-11-12T04:18:52.809Z,6.27
2022-11-12T04:24:34.006Z,6.18
2022-11-12T04:30:13.889Z,6.06
2022-11-12T04:35:35.049Z,5.90
2022-11-12T04:41:14.417Z,5.87
2022-11-12T04:46:35.400Z,6.16
2022-11-12T04:52:05.512Z,6.56
2022-11-12T04:57:27.108Z,6.34
2022-11-12T05:02:50.526Z,6.72
2022-11-12T05:08:11.752Z,6.74
2022-11-12T05:13:32.783Z,6.69
2022-11-12T05:18:54.039Z,6.74
2022-11-12T05:24:33.966Z,6.31
2022-11-12T05:29:55.889Z,6.16
2022-11-12T05:35:16.997Z,6.10
2022-11-12T05:40:37.739Z,6.45
2022-11-12T05:45:59.000Z,6.56
2022-11-12T05:51:20.078Z,6.37
2022-11-12T05:56:41.328Z,6.37
2022-11-12T06:02:02.140Z,6.38
2022-11-12T06:07:23.347Z,6.38
2022-11-12T06:12:44.102Z,6.07
2022-11-12T06:18:05.077Z,5.95
2022-11-12T06:23:25.903Z,5.82
2022-11-12T06:28:48.050Z,5.61
2022-11-12T06:34:08.948Z,5.53
2022-11-12T06:39:29.672Z,5.75
2022-11-12T06:44:50.820Z,6.13
2022-11-12T06:50:11.852Z,6.25
2022-11-12T06:55:33.163Z,5.97
2022-11-12T07:00:53.917Z,6.03
2022-11-12T07:06:19.287Z,6.28
2022-11-12T07:11:40.238Z,6.54
2022-11-12T07:17:01.470Z,6.72
2022-11-12T07:22:22.264Z,6.86
2022-11-12T07:27:42.967Z,7.04
2022-11-12T07:33:03.986Z,7.16
2022-11-12T07:38:25.547Z,7.37
2022-11-12T07:43:48.464Z,7.59
2022-11-12T07:49:09.582Z,7.84
2022-11-12T07:54:30.553Z,7.84
2022-11-12T07:59:51.419Z,7.86
2022-11-12T08:05:16.512Z,8.03
2022-11-12T08:10:40.933Z,8.11
2022-11-12T08:16:02.263Z,8.02
2022-11-12T08:21:23.236Z,8.03
2022-11-12T08:26:44.333Z,7.76
2022-11-12T08:32:05.653Z,8.08
2022-11-12T08:37:26.931Z,8.88
2022-11-12T08:42:48.245Z,9.56
2022-11-12T08:48:13.840Z,9.43
2022-11-12T08:53:34.727Z,8.96
2022-11-12T08:58:56.037Z,9.12
2022-11-12T09:04:17.278Z,9.35
2022-11-12T09:09:38.273Z,9.54
2022-11-12T09:15:09.622Z,9.74
2022-11-12T09:20:41.189Z,9.76
2022-11-12T09:26:02.709Z,10.01
2022-11-12T09:31:25.764Z,10.31
2022-11-12T09:36:46.607Z,10.52
2022-11-12T09:42:16.016Z,10.69
2022-11-12T09:47:45.299Z,11.19
2022-11-12T10:42:57.347Z,13.12
2022-11-12T10:48:31.195Z,13.26
2022-11-12T10:53:55.107Z,13.80
2022-11-12T10:59:26.104Z,14.59
2022-11-12T11:04:51.109Z,14.99
2022-11-12T11:10:28.017Z,14.91
2022-11-12T11:16:00.085Z,15.48
2022-11-12T11:21:47.971Z,16.96
2022-11-12T11:27:19.888Z,16.61
2022-11-12T11:32:52.355Z,18.07
2022-11-12T11:38:25.566Z,18.56
2022-11-12T11:44:14.792Z,18.36
2022-11-12T11:50:01.905Z,17.61
2022-11-12T11:55:48.148Z,17.18
2022-11-12T12:01:20.619Z,16.85
2022-11-12T12:07:19.483Z,16.37
2022-11-12T12:13:05.451Z,16.09
2022-11-12T12:18:37.348Z,16.20
2022-11-12T12:24:18.032Z,16.49
2022-11-12T12:29:49.252Z,16.24
2022-11-12T12:35:38.738Z,15.67
2022-11-12T12:41:29.369Z,15.47
2022-11-12T12:46:57.451Z,15.54
2022-11-12T12:52:18.688Z,15.23
2022-11-12T12:57:40.803Z,15.04
2022-11-12T13:03:01.765Z,14.91
2022-11-12T13:08:27.225Z,14.80
2022-11-12T13:13:48.549Z,14.72
2022-11-12T13:19:09.735Z,14.70
2022-11-12T13:25:05.119Z,14.63
2022-11-12T13:30:25.860Z,14.55
2022-11-12T13:35:46.898Z,14.42
2022-11-12T13:41:43.795Z,14.39
2022-11-12T13:47:05.254Z,14.38
2022-11-12T13:52:26.935Z,14.38
2022-11-12T13:57:52.731Z,14.36
2022-11-12T14:03:18.937Z,14.21
2022-11-12T14:09:07.657Z,14.16
2022-11-12T14:15:04.349Z,14.14
2022-11-12T14:20:30.550Z,14.11
2022-11-12T14:25:53.785Z,14.05
2022-11-12T14:31:15.817Z,13.99
2022-11-12T14:36:38.764Z,13.94
2022-11-12T14:42:00.913Z,13.84
2022-11-12T14:47:23.178Z,13.66
2022-11-12T14:52:48.504Z,13.55
2022-11-12T14:58:17.579Z,13.36
2022-11-12T15:03:38.494Z,13.12
2022-11-12T15:09:00.152Z,13.04
2022-11-12T15:14:24.808Z,13.05
2022-11-12T15:19:45.817Z,12.93
2022-11-12T15:25:23.372Z,12.68
2022-11-12T15:31:08.016Z,12.50
2022-11-12T15:36:32.260Z,12.31
2022-11-12T15:42:05.939Z,12.11
2022-11-12T15:47:26.740Z,11.96
2022-11-12T15:52:47.964Z,11.78
2022-11-12T15:58:20.702Z,11.60
2022-11-12T16:03:41.577Z,11.49
2022-11-12T16:09:02.662Z,11.41
2022-11-12T16:14:25.114Z,11.36
2022-11-12T16:19:46.530Z,11.26
2022-11-12T16:25:08.091Z,11.48
2022-11-12T16:30:33.501Z,11.24
2022-11-12T16:35:54.296Z,11.10
2022-11-12T16:41:15.904Z,10.89
2022-11-12T16:46:42.031Z,10.67
2022-11-12T16:52:04.736Z,10.55
2022-11-12T16:57:26.568Z,10.44
2022-11-12T17:02:53.031Z,10.44
2022-11-12T17:08:14.813Z,10.51
2022-11-12T17:13:38.696Z,10.43
2022-11-12T17:19:01.730Z,10.21
2022-11-12T17:24:25.504Z,10.07
2022-11-12T17:29:46.484Z,10.12
2022-11-12T17:35:07.892Z,10.11
2022-11-12T17:40:28.968Z,10.02
2022-11-12T17:45:54.339Z,10.02
2022-11-12T17:51:17.968Z,9.82
2022-11-12T17:56:38.707Z,9.74
2022-11-12T18:02:00.069Z,9.64
2022-11-12T18:07:20.777Z,9.82
2022-11-12T18:12:46.984Z,9.80
2022-11-12T18:18:08.096Z,9.74
2022-11-12T18:23:29.312Z,9.88
2022-11-12T18:29:00.598Z,10.00
2022-11-12T18:34:24.053Z,10.05
2022-11-12T18:39:45.459Z,10.02
2022-11-12T18:45:07.342Z,10.00
2022-11-12T18:50:28.341Z,9.86
2022-11-12T18:55:49.236Z,9.55
2022-11-12T19:01:16.858Z,9.36
2022-11-12T19:06:38.280Z,9.53
2022-11-12T19:11:59.255Z,9.70
2022-11-12T19:17:20.101Z,9.74
2022-11-12T19:22:41.275Z,9.46
2022-11-12T19:28:02.348Z,9.30
2022-11-12T19:33:23.941Z,9.41
2022-11-12T19:38:45.148Z,9.31
2022-11-12T19:44:06.391Z,9.27
2022-11-12T19:49:27.487Z,9.31
2022-11-12T19:54:48.235Z,9.24
2022-11-12T20:00:10.847Z,9.37
2022-11-12T20:05:31.982Z,9.54
2022-11-12T20:10:55.813Z,9.57
2022-11-12T20:16:23.843Z,9.49
2022-11-12T20:21:46.319Z,9.64
2022-11-12T20:27:07.957Z,9.72
2022-11-12T20:32:29.097Z,9.77
2022-11-12T20:37:50.199Z,9.90
2022-11-12T20:43:11.362Z,9.57
2022-11-12T20:48:32.442Z,9.30
2022-11-12T20:53:59.405Z,9.24
2022-11-12T20:59:21.021Z,9.23
2022-11-12T21:04:41.891Z,8.76
2022-11-12T21:10:03.380Z,8.53
2022-11-12T21:15:24.450Z,8.41
2022-11-12T21:20:46.614Z,8.32
2022-11-12T21:26:16.011Z,8.41
2022-11-12T21:31:37.339Z,8.75
2022-11-12T21:36:59.177Z,8.87
2022-11-12T21:42:20.059Z,8.44
2022-11-12T21:47:40.863Z,8.66
2022-11-12T21:53:01.791Z,8.90
2022-11-12T21:58:22.874Z,8.97
2022-11-12T22:03:48.503Z,8.37
2022-11-12T22:09:09.354Z,8.06
2022-11-12T22:14:30.165Z,7.88
2022-11-12T22:19:50.869Z,7.97
2022-11-12T22:25:11.930Z,7.95
2022-11-12T22:30:33.022Z,7.83
2022-11-12T22:35:54.049Z,7.72
2022-11-12T22:41:18.200Z,7.64
2022-11-12T22:46:39.175Z,7.63
2022-11-12T22:52:00.299Z,7.64
2022-11-12T22:57:21.237Z,7.64
2022-11-12T23:02:47.345Z,7.41
2022-11-12T23:08:08.917Z,7.53
2022-11-12T23:13:29.922Z,7.70
2022-11-12T23:18:52.622Z,7.95
2022-11-12T23:24:13.564Z,7.94
2022-11-12T23:29:34.737Z,8.07
2022-11-12T23:34:55.913Z,8.27
2022-11-12T23:40:17.272Z,8.18
2022-11-12T23:45:38.438Z,8.26
2022-11-12T23:51:08.176Z,8.27
2022-11-12T23:56:29.529Z,8.13
